Latest Weather Observations for Moorabbin Airport

IDV60801

Issued at 9:52 am EST Wednesday 24 July 2024 (issued every 10 minutes, with the page automatically refreshed every 10 minutes)

About weather observations | Map of weather stations | Latest weather observations for VIC | Other Formats
Station Details ID: 086077 Name: MOORABBIN AIRPORT Lat: -37.98 Lon: 145.10 Height: 12.1 m
Data from the previous 72 hours. | See also: Recent months at Moorabbin Airport
Date/Time
EST
Temp
°C
App
Temp
°C
Dew
Point
°C
Rel
Hum
%
Delta-T
°C
Wind Press
QNH
hPa
Press
MSL
hPa
Rain since
9am
mm
Dir  Spd
km/h
Gust
km/h
Spd
kts
Gust
kts
24/09:30am 12.1 6.2 4.1 58 3.6 N 24 30 13 16 1018.6 1018.7 0.0
24/09:00am 12.2 6.3 3.7 56 3.8 N 24 32 13 17 1018.8 1018.9 0.0
24/08:30am 11.6 6.4 3.6 58 3.5 N 20 30 11 16 1018.8 1018.9 0.0
24/08:00am 11.2 6.6 3.5 59 3.4 N 17 24 9 13 1019.1 1019.2 0.0
24/07:30am 10.8 5.7 3.1 59 3.3 N 19 24 10 13 1019.0 1019.1 0.0
24/07:00am 11.3 5.6 3.1 57 3.6 N 22 28 12 15 1019.3 1019.4 0.0
24/06:30am 11.8 3.7 3.1 55 3.8 N 35 44 19 24 1019.0 1019.1 0.0
24/06:00am 12.5 2.2 2.9 52 4.2 N 46 63 25 34 1017.7 1017.8 0.0
24/05:30am 12.6 4.1 3.0 52 4.2 N 37 50 20 27 1017.8 1017.9 0.0
24/05:00am 12.6 3.7 3.0 52 4.2 N 39 48 21 26 1017.8 1017.9 0.0
24/04:30am 12.6 4.0 2.7 51 4.3 N 37 50 20 27 1018.0 1018.1 0.0
24/04:00am 12.2 4.6 2.6 52 4.2 N 32 39 17 21 1018.4 1018.5 0.0
24/03:30am 12.0 5.5 2.7 53 4.1 N 26 35 14 19 1018.5 1018.6 0.0
24/03:00am 12.4 5.5 2.6 51 4.3 N 28 41 15 22 1018.7 1018.8 0.0
24/02:30am 12.5 5.2 2.4 50 4.4 N 30 35 16 19 1018.7 1018.8 0.0
24/02:00am 12.7 5.8 2.8 51 4.3 N 28 37 15 20 1018.9 1019.0 0.0
24/01:30am 12.8 6.0 3.2 52 4.3 N 28 43 15 23 1019.1 1019.2 0.0
24/01:00am 13.1 5.5 2.9 50 4.5 N 32 43 17 23 1019.2 1019.3 0.0
24/12:30am 13.0 5.7 2.6 49 4.6 N 30 41 16 22 1019.4 1019.5 0.0
24/12:00am 12.7 5.8 2.8 51 4.3 N 28 41 15 22 1019.5 1019.6 0.0
 
Date/Time
EST
Temp
°C
App
Temp
°C
Dew
Point
°C
Rel
Hum
%
Delta-T
°C
Wind Press
QNH
hPa
Press
MSL
hPa
Rain since
9am
mm
Dir  Spd
km/h
Gust
km/h
Spd
kts
Gust
kts
23/11:30pm 12.7 6.7 3.6 54 4.1 N 24 32 13 17 1019.8 1019.9 0.0
23/11:00pm 12.6 6.8 4.3 57 3.8 N 24 30 13 16 1020.1 1020.2 0.0
23/10:30pm 12.6 6.8 4.6 58 3.7 N 24 32 13 17 1020.2 1020.3 0.0
23/10:00pm 12.8 6.7 5.0 59 3.6 N 26 39 14 21 1020.2 1020.3 0.0
23/09:30pm 13.1 6.7 5.0 58 3.7 N 28 41 15 22 1020.0 1020.1 0.0
23/09:00pm 12.8 6.6 4.5 57 3.8 N 26 33 14 18 1020.2 1020.3 0.0
23/08:30pm 12.6 6.8 4.6 58 3.7 N 24 32 13 17 1020.3 1020.4 0.0
23/08:00pm 12.3 7.5 5.5 63 3.1 N 20 26 11 14 1020.7 1020.8 0.0
23/07:30pm 12.3 7.7 5.5 63 3.2 N 19 26 10 14 1020.9 1021.0 0.0
23/07:00pm 12.7 8.2 6.1 64 3.1 N 19 24 10 13 1021.0 1021.1 0.0
23/06:30pm 12.7 8.6 6.3 65 3.0 N 17 20 9 11 1021.0 1021.1 0.0
23/06:00pm 14.1 9.4 6.0 58 3.8 N 20 30 11 16 1021.0 1021.1 0.0
23/05:30pm 14.5 10.0 6.1 57 4.0 N 19 24 10 13 1020.9 1021.0 0.0
23/05:00pm 14.9 9.7 5.7 54 4.4 N 22 28 12 15 1020.8 1020.9 0.0
23/04:30pm 15.5 9.6 5.7 52 4.7 N 26 35 14 19 1020.8 1020.9 0.0
23/04:00pm 16.4 9.3 5.4 48 5.2 N 32 41 17 22 1020.6 1020.7 0.0
23/03:30pm 17.0 10.3 5.6 47 5.5 N 30 41 16 22 1020.5 1020.6 0.0
23/03:00pm 16.9 9.0 4.6 44 5.8 N 35 44 19 24 1020.6 1020.7 0.0
23/02:30pm 16.9 10.1 4.9 45 5.7 N 30 41 16 22 1020.7 1020.8 0.0
23/02:00pm 17.3 9.8 4.3 42 6.1 N 33 44 18 24 1020.9 1021.0 0.0
23/01:30pm 17.2 10.6 4.2 42 6.1 N 28 43 15 23 1021.4 1021.5 0.0
23/01:00pm 16.7 9.1 4.1 43 5.9 NNW 33 43 18 23 1021.9 1022.0 0.0
23/12:30pm 16.8 9.4 4.2 43 5.9 N 32 44 17 24 1022.2 1022.3 0.0
23/12:00pm 16.5 9.5 4.2 44 5.7 NNW 30 41 16 22 1022.8 1022.9 0.0
23/11:30am 15.9 8.4 3.4 43 5.7 N 32 46 17 25 1023.1 1023.2 0.0
23/11:00am 15.5 8.0 3.6 45 5.4 N 32 43 17 23 1023.4 1023.5 0.0
23/10:30am 14.9 8.3 4.3 49 4.9 N 28 37 15 20 1023.4 1023.5 0.0
23/10:00am 14.3 7.7 4.0 50 4.7 N 28 39 15 21 1023.5 1023.6 0.0
23/09:30am 13.4 7.4 5.1 57 3.9 N 26 39 14 21 1023.6 1023.7 0.0
23/09:00am 12.9 6.0 4.6 57 3.8 N 30 43 16 23 1023.4 1023.5 0.0
23/08:30am 12.3 6.2 5.0 61 3.4 N 26 33 14 18 1023.5 1023.6 0.0
23/08:00am 11.7 6.8 5.3 65 2.9 N 20 28 11 15 1023.5 1023.6 0.0
23/07:30am 11.7 6.9 5.6 66 2.8 N 20 28 11 15 1023.5 1023.6 0.0
23/07:00am 12.2 6.7 6.0 66 2.9 N 24 30 13 16 1023.3 1023.4 0.0
23/06:30am 12.7 6.9 6.3 65 3.0 N 26 33 14 18 1023.1 1023.2 0.0
23/06:00am 12.7 8.1 6.7 67 2.9 N 20 26 11 14 1022.9 1023.0 0.0
23/05:30am 12.9 8.7 7.4 69 2.7 N 19 24 10 13 1022.7 1022.8 0.0
23/05:00am 13.1 8.7 7.5 69 2.7 N 20 28 11 15 1022.6 1022.7 0.0
23/04:30am 13.3 9.5 7.7 69 2.8 N 17 20 9 11 1022.5 1022.6 0.0
23/04:00am 13.5 9.8 7.9 69 2.8 N 17 22 9 12 1022.5 1022.6 0.0
23/03:30am 13.7 10.0 7.9 68 2.9 N 17 24 9 13 1022.5 1022.6 0.0
23/03:00am 13.5 9.8 8.1 70 2.7 NNW 17 24 9 13 1022.6 1022.7 0.0
23/02:30am 13.4 9.8 8.3 71 2.5 NNW 17 24 9 13 1022.7 1022.8 0.0
23/02:00am 13.9 10.3 8.5 70 2.7 N 17 22 9 12 1022.8 1022.9 0.0
23/01:30am 14.3 9.4 8.3 67 3.0 NNW 24 32 13 17 1022.5 1022.6 0.0
23/01:00am 14.6 10.1 8.5 67 3.1 N 22 33 12 18 1022.3 1022.4 0.0
23/12:30am 14.8 10.2 8.3 65 3.3 N 22 32 12 17 1022.5 1022.6 0.0
23/12:00am 14.9 10.8 8.8 67 3.1 N 20 26 11 14 1022.7 1022.8 0.0
 
Date/Time
EST
Temp
°C
App
Temp
°C
Dew
Point
°C
Rel
Hum
%
Delta-T
°C
Wind Press
QNH
hPa
Press
MSL
hPa
Rain since
9am
mm
Dir  Spd
km/h
Gust
km/h
Spd
kts
Gust
kts
22/11:30pm 14.4 11.0 9.2 71 2.7 N 17 22 9 12 1022.8 1022.9 0.0
22/11:00pm 14.5 11.2 9.5 72 2.6 N 17 20 9 11 1022.9 1023.0 0.0
22/10:30pm 14.3 10.6 9.5 73 2.5 N 19 24 10 13 1022.9 1023.0 0.0
22/10:00pm 14.2 9.2 9.4 73 2.4 N 26 35 14 19 1022.8 1022.9 0.0
22/09:30pm 14.7 10.1 9.7 72 2.6 N 24 32 13 17 1023.0 1023.1 0.0
22/09:00pm 14.7 10.1 9.7 72 2.6 N 24 32 13 17 1023.0 1023.1 0.0
22/08:30pm 14.7 10.9 9.9 73 2.5 NNW 20 28 11 15 1023.0 1023.1 0.0
22/08:00pm 14.4 9.4 9.6 73 2.5 NNW 26 35 14 19 1022.6 1022.7 0.0
22/07:30pm 14.7 10.2 9.9 73 2.5 NNW 24 33 13 18 1022.6 1022.7 0.0
22/07:00pm 14.5 10.0 9.9 74 2.4 N 24 30 13 16 1022.2 1022.3 0.0
22/06:30pm 14.6 10.1 10.0 74 2.4 N 24 33 13 18 1022.0 1022.1 0.0
22/06:00pm 14.7 9.9 10.3 75 2.3 N 26 37 14 20 1021.8 1021.9 0.0
22/05:30pm 14.6 10.6 10.4 76 2.2 N 22 28 12 15 1021.7 1021.8 0.0
22/05:00pm 14.9 10.5 10.3 74 2.4 N 24 35 13 19 1021.4 1021.5 0.0
22/04:30pm 15.8 11.6 9.7 67 3.2 NNW 22 33 12 18 1021.2 1021.3 0.0
22/04:00pm 16.5 11.0 9.2 62 3.8 NNW 28 39 15 21 1021.0 1021.1 0.0
22/03:30pm 16.1 11.6 10.0 67 3.2 N 24 33 13 18 1020.9 1021.0 0.0
22/03:00pm 16.2 12.9 9.4 64 3.5 N 17 26 9 14 1020.9 1021.0 0.0
22/02:30pm 15.9 11.4 10.0 68 3.1 N 24 33 13 18 1020.6 1020.7 0.0
22/02:00pm 16.3 11.7 9.5 64 3.5 NNW 24 35 13 19 1020.7 1020.8 0.0
22/01:30pm 16.3 11.4 8.5 60 4.0 NNW 24 39 13 21 1020.8 1020.9 0.0
22/01:00pm 16.4 11.1 8.4 59 4.1 NNW 26 39 14 21 1020.8 1020.9 0.0
22/12:30pm 15.9 11.4 10.2 69 3.0 N 24 33 13 18 1021.2 1021.3 0.0
22/12:00pm 15.6 11.4 9.7 68 3.1 NNW 22 30 12 16 1021.5 1021.6 0.0
22/11:30am 16.1 11.3 10.2 68 3.1 NNW 26 37 14 20 1021.7 1021.8 0.0
22/11:00am 15.1 9.7 9.5 69 2.9 N 28 39 15 21 1021.8 1021.9 0.0
22/10:30am 14.3 8.5 9.5 73 2.5 N 30 43 16 23 1021.6 1021.7 0.0
22/10:00am 13.7 8.3 9.6 76 2.1 N 28 37 15 20 1021.7 1021.8 0.0
22/09:30am 12.5 7.4 9.3 81 1.6 N 26 37 14 20 1021.5 1021.6 0.0
22/09:00am 12.4 8.2 9.6 83 1.4 N 22 28 12 15 1021.6 1021.7 1.2
22/08:30am 11.8 7.9 9.4 85 1.2 N 20 26 11 14 1021.3 1021.4 1.2
22/08:00am 11.4 6.6 9.0 85 1.2 N 24 33 13 18 1020.8 1020.9 1.2
22/07:30am 11.2 6.8 8.9 86 1.1 N 22 33 12 18 1020.5 1020.6 1.2
22/07:00am 11.3 6.9 8.9 85 1.2 N 22 30 12 16 1020.2 1020.3 1.2
22/06:30am 11.4 6.7 9.1 86 1.1 N 24 32 13 17 1020.0 1020.1 1.2
22/06:00am 11.2 6.8 9.1 87 1.0 N 22 28 12 15 1019.9 1020.0 1.2
22/05:30am 11.4 7.1 9.3 87 1.1 N 22 28 12 15 1019.8 1019.9 1.2
22/05:00am 11.6 7.3 9.5 87 1.1 N 22 26 12 14 1019.6 1019.7 1.2
22/04:30am 11.6 8.0 9.7 88 1.0 N 19 26 10 14 1019.5 1019.6 1.2
22/04:00am 11.7 7.9 9.8 88 1.0 N 20 26 11 14 1019.2 1019.3 1.2
22/03:30am 12.0 8.8 9.9 87 1.1 N 17 24 9 13 1019.4 1019.5 0.8
22/03:00am 12.2 8.3 9.6 84 1.3 N 20 30 11 16 1019.3 1019.4 0.2
22/02:30am 12.3 8.9 9.3 82 1.5 NNW 17 20 9 11 1019.4 1019.5 0.0
22/02:00am 12.4 8.1 9.2 81 1.6 N 22 30 12 16 1019.2 1019.3 0.0
22/01:30am 12.3 8.0 9.5 83 1.4 N 22 30 12 16 1019.3 1019.4 0.0
22/01:00am 12.5 7.8 9.1 80 1.7 N 24 32 13 17 1019.2 1019.3 0.0
22/12:30am 12.5 7.4 9.1 80 1.7 N 26 39 14 21 1019.3 1019.4 0.0
22/12:00am 12.5 7.0 9.1 80 1.7 N 28 33 15 18 1019.1 1019.2 0.0
 
Date/Time
EST
Temp
°C
App
Temp
°C
Dew
Point
°C
Rel
Hum
%
Delta-T
°C
Wind Press
QNH
hPa
Press
MSL
hPa
Rain since
9am
mm
Dir  Spd
km/h
Gust
km/h
Spd
kts
Gust
kts
21/11:30pm 12.3 7.2 9.1 81 1.6 N 26 37 14 20 1019.2 1019.3 0.0
21/11:00pm 12.5 7.8 9.1 80 1.7 N 24 32 13 17 1019.2 1019.3 0.0
21/10:30pm 12.6 7.1 9.1 79 1.8 N 28 39 15 21 1019.0 1019.1 0.0
21/10:00pm 12.6 7.1 9.1 79 1.8 N 28 35 15 19 1019.1 1019.2 0.0
21/09:30pm 12.6 7.1 9.1 79 1.8 N 28 39 15 21 1019.0 1019.1 0.0
21/09:00pm 12.4 8.0 9.1 80 1.7 N 22 30 12 16 1019.1 1019.2 0.0
21/08:30pm 12.4 8.0 9.1 80 1.7 N 22 32 12 17 1018.9 1019.0 0.0
21/08:00pm 12.4 7.3 9.1 80 1.7 N 26 33 14 18 1018.9 1019.0 0.0
21/07:30pm 12.2 6.6 8.7 79 1.7 N 28 33 15 18 1018.8 1018.9 0.0
21/07:00pm 12.2 6.5 8.5 78 1.8 N 28 39 15 21 1018.5 1018.6 0.0
21/06:30pm 12.0 6.3 8.5 79 1.7 N 28 35 15 19 1018.4 1018.5 0.0
21/06:00pm 12.0 6.7 8.3 78 1.8 N 26 37 14 20 1018.3 1018.4 0.0
21/05:30pm 12.4 7.0 8.1 75 2.1 N 26 37 14 20 1018.0 1018.1 0.0
21/05:00pm 12.5 6.7 7.8 73 2.3 N 28 39 15 21 1018.0 1018.1 0.0
21/04:30pm 13.4 7.9 7.4 67 2.9 N 26 37 14 20 1017.8 1017.9 0.0
21/04:00pm 13.8 9.1 7.6 66 3.0 N 22 32 12 17 1017.6 1017.7 0.0
21/03:30pm 14.3 9.6 7.6 64 3.3 NNW 22 33 12 18 1017.3 1017.4 0.0
21/03:00pm 14.8 10.0 7.4 61 3.6 NNW 22 30 12 16 1017.0 1017.1 0.0
21/02:30pm 15.4 11.1 6.9 57 4.2 NW 19 28 10 15 1016.8 1016.8 0.0
21/02:00pm 16.3 10.9 7.8 57 4.3 NW 26 37 14 20 1016.6 1016.6 0.0
21/01:30pm 15.9 11.2 7.9 59 4.0 NNW 22 35 12 19 1016.7 1016.7 0.0
21/01:00pm 15.8 10.7 7.8 59 4.0 NW 24 35 13 19 1017.1 1017.2 0.0
21/12:30pm 15.7 12.2 8.7 63 3.6 NW 17 33 9 18 1017.5 1017.6 0.0
21/12:00pm 14.7 10.7 8.2 65 3.3 NW 19 28 10 15 1017.7 1017.8 0.0
21/11:30am 14.8 10.7 8.7 67 3.1 NNW 20 26 11 14 1017.9 1018.0 0.0
21/11:00am 13.3 8.9 7.5 68 2.8 NNW 20 28 11 15 1018.1 1018.2 0.0
21/10:30am 12.0 8.2 7.5 74 2.2 N 17 24 9 13 1018.3 1018.4 0.0
21/10:00am 11.3 7.5 7.6 78 1.8 N 17 26 9 14 1018.2 1018.3 0.0

Other formats

Comma delimited format used in spreadsheet applications
http://www.bom.gov.au/fwo/IDV60801/IDV60801.94870.axf

JavaScript Object Notation format (JSON) in row-major order
http://www.bom.gov.au/fwo/IDV60801/IDV60801.94870.json

Data quality

Most of these data are generated automatically and are frequently updated. Quality checks on data are not normally performed. It is possible for incorrect values to appear. Refer to information at About Latest Weather Observations and please check the disclaimer before using these data.